Terminal Aerodrome Forecast
Issued by NWS

Home | Current Version | Previous Version | Graphics & Text | Print | Product List | Glossary On
Versions: 1 2 3 4 5 6 7 8 9 10 11 12 13 14 15 16 17 18 19 20
000
FTUS43 KGRB 141700
TAFAUW
TAF
KAUW 141733Z 1418/1518 33014G24KT P6SM -SN SCT012 OVC025
     FM141900 32012G22KT P6SM BKN035
     FM142300 32009KT P6SM SCT045 BKN120
     FM150900 30005KT P6SM SCT040
      TEMPO 1509/1511 -SN
     FM151500 29010KT P6SM BKN040=

USA.gov is the U.S. government's official web portal to all federal, state and local government web resources and services.